sensor_id;sensor_type;location;lat;lon;timestamp;temperature;humidity
22787;DHT22;63134;52.020;4.714;2023-02-15T00:02:37;5.30;90.50
22787;DHT22;63134;52.020;4.714;2023-02-15T00:05:22;5.20;90.60
22787;DHT22;63134;52.020;4.714;2023-02-15T00:08:08;5.20;90.70
22787;DHT22;63134;52.020;4.714;2023-02-15T00:11:06;5.20;90.70
22787;DHT22;63134;52.020;4.714;2023-02-15T00:13:52;5.20;90.80
22787;DHT22;63134;52.020;4.714;2023-02-15T00:16:38;5.20;90.80
22787;DHT22;63134;52.020;4.714;2023-02-15T00:19:24;5.10;90.90
22787;DHT22;63134;52.020;4.714;2023-02-15T00:22:12;5.10;90.90
22787;DHT22;63134;52.020;4.714;2023-02-15T00:24:57;5.10;91.20
22787;DHT22;63134;52.020;4.714;2023-02-15T00:27:43;5.00;90.90
22787;DHT22;63134;52.020;4.714;2023-02-15T00:30:28;5.00;91.00
22787;DHT22;63134;52.020;4.714;2023-02-15T00:33:14;5.00;91.10
22787;DHT22;63134;52.020;4.714;2023-02-15T00:36:00;5.00;91.30
22787;DHT22;63134;52.020;4.714;2023-02-15T00:38:46;5.10;91.30
22787;DHT22;63134;52.020;4.714;2023-02-15T00:41:32;5.00;91.20
22787;DHT22;63134;52.020;4.714;2023-02-15T00:44:20;5.00;91.30
22787;DHT22;63134;52.020;4.714;2023-02-15T00:47:06;5.00;91.30
22787;DHT22;63134;52.020;4.714;2023-02-15T00:49:54;5.00;91.40
22787;DHT22;63134;52.020;4.714;2023-02-15T00:52:39;5.00;91.40
22787;DHT22;63134;52.020;4.714;2023-02-15T00:55:25;5.00;91.40
22787;DHT22;63134;52.020;4.714;2023-02-15T00:58:11;4.90;91.40
22787;DHT22;63134;52.020;4.714;2023-02-15T01:01:13;4.90;91.50
22787;DHT22;63134;52.020;4.714;2023-02-15T01:03:59;4.90;91.60
22787;DHT22;63134;52.020;4.714;2023-02-15T01:06:47;4.90;91.70
22787;DHT22;63134;52.020;4.714;2023-02-15T01:09:32;4.90;91.60
22787;DHT22;63134;52.020;4.714;2023-02-15T01:12:18;4.90;91.70
22787;DHT22;63134;52.020;4.714;2023-02-15T01:15:05;4.80;91.70
22787;DHT22;63134;52.020;4.714;2023-02-15T01:17:52;4.70;91.70
22787;DHT22;63134;52.020;4.714;2023-02-15T01:20:39;4.70;91.70
22787;DHT22;63134;52.020;4.714;2023-02-15T01:23:26;4.70;91.80
22787;DHT22;63134;52.020;4.714;2023-02-15T01:26:13;4.70;91.80
22787;DHT22;63134;52.020;4.714;2023-02-15T01:29:01;4.70;91.80
22787;DHT22;63134;52.020;4.714;2023-02-15T01:31:49;4.60;91.80
22787;DHT22;63134;52.020;4.714;2023-02-15T01:34:35;4.60;91.80
22787;DHT22;63134;52.020;4.714;2023-02-15T01:37:23;4.60;91.90
22787;DHT22;63134;52.020;4.714;2023-02-15T01:40:13;4.60;92.00
22787;DHT22;63134;52.020;4.714;2023-02-15T01:43:02;4.50;92.00
22787;DHT22;63134;52.020;4.714;2023-02-15T01:45:48;4.50;92.10
22787;DHT22;63134;52.020;4.714;2023-02-15T01:48:41;4.50;92.20
22787;DHT22;63134;52.020;4.714;2023-02-15T01:51:31;4.50;92.20
22787;DHT22;63134;52.020;4.714;2023-02-15T01:54:27;4.50;92.20
22787;DHT22;63134;52.020;4.714;2023-02-15T01:57:21;4.50;92.20
22787;DHT22;63134;52.020;4.714;2023-02-15T02:00:08;4.50;92.20
22787;DHT22;63134;52.020;4.714;2023-02-15T02:02:57;4.50;92.10
22787;DHT22;63134;52.020;4.714;2023-02-15T02:05:43;4.40;92.10
22787;DHT22;63134;52.020;4.714;2023-02-15T02:08:31;4.40;92.30
22787;DHT22;63134;52.020;4.714;2023-02-15T02:11:16;4.40;92.20
22787;DHT22;63134;52.020;4.714;2023-02-15T02:14:05;4.40;92.30
22787;DHT22;63134;52.020;4.714;2023-02-15T02:23:18;4.40;92.40
22787;DHT22;63134;52.020;4.714;2023-02-15T02:35:30;4.30;92.50
22787;DHT22;63134;52.020;4.714;2023-02-15T02:38:21;4.30;92.50
22787;DHT22;63134;52.020;4.714;2023-02-15T02:44:24;4.30;92.70
22787;DHT22;63134;52.020;4.714;2023-02-15T02:50:23;4.30;92.60
22787;DHT22;63134;52.020;4.714;2023-02-15T02:53:10;4.30;92.60
22787;DHT22;63134;52.020;4.714;2023-02-15T02:56:06;4.30;92.60
22787;DHT22;63134;52.020;4.714;2023-02-15T02:59:08;4.30;92.70
22787;DHT22;63134;52.020;4.714;2023-02-15T03:04:53;4.30;92.70
22787;DHT22;63134;52.020;4.714;2023-02-15T03:07:44;4.30;92.70
22787;DHT22;63134;52.020;4.714;2023-02-15T03:10:32;4.20;92.70
22787;DHT22;63134;52.020;4.714;2023-02-15T03:13:23;4.30;92.90
22787;DHT22;63134;52.020;4.714;2023-02-15T03:16:09;4.30;92.90
22787;DHT22;63134;52.020;4.714;2023-02-15T03:19:21;4.30;92.90
22787;DHT22;63134;52.020;4.714;2023-02-15T03:22:15;4.20;92.90
22787;DHT22;63134;52.020;4.714;2023-02-15T03:28:44;4.30;93.00
22787;DHT22;63134;52.020;4.714;2023-02-15T03:31:35;4.20;92.90
22787;DHT22;63134;52.020;4.714;2023-02-15T03:34:22;4.20;92.80
22787;DHT22;63134;52.020;4.714;2023-02-15T03:37:22;4.10;92.70
22787;DHT22;63134;52.020;4.714;2023-02-15T03:40:16;4.10;92.70
22787;DHT22;63134;52.020;4.714;2023-02-15T03:44:16;4.10;92.80
22787;DHT22;63134;52.020;4.714;2023-02-15T03:47:20;4.10;92.80
22787;DHT22;63134;52.020;4.714;2023-02-15T03:50:22;4.10;92.80
22787;DHT22;63134;52.020;4.714;2023-02-15T03:53:28;4.00;92.80
22787;DHT22;63134;52.020;4.714;2023-02-15T03:56:14;4.00;92.90
22787;DHT22;63134;52.020;4.714;2023-02-15T03:59:00;4.00;92.90
22787;DHT22;63134;52.020;4.714;2023-02-15T04:02:24;4.00;93.00
22787;DHT22;63134;52.020;4.714;2023-02-15T04:05:18;4.00;92.90
22787;DHT22;63134;52.020;4.714;2023-02-15T04:08:04;4.00;93.00
22787;DHT22;63134;52.020;4.714;2023-02-15T04:10:49;3.90;93.00
22787;DHT22;63134;52.020;4.714;2023-02-15T04:13:38;3.90;93.00
22787;DHT22;63134;52.020;4.714;2023-02-15T04:16:26;3.90;93.20
22787;DHT22;63134;52.020;4.714;2023-02-15T04:19:15;4.00;93.30
22787;DHT22;63134;52.020;4.714;2023-02-15T04:22:19;3.90;93.30
22787;DHT22;63134;52.020;4.714;2023-02-15T04:25:23;4.00;93.30
22787;DHT22;63134;52.020;4.714;2023-02-15T04:28:09;4.00;93.40
22787;DHT22;63134;52.020;4.714;2023-02-15T04:30:55;4.00;93.50
22787;DHT22;63134;52.020;4.714;2023-02-15T04:33:40;4.00;93.40
22787;DHT22;63134;52.020;4.714;2023-02-15T04:36:26;4.00;93.40
22787;DHT22;63134;52.020;4.714;2023-02-15T04:39:16;4.00;93.40
22787;DHT22;63134;52.020;4.714;2023-02-15T04:42:01;4.00;93.40
22787;DHT22;63134;52.020;4.714;2023-02-15T04:44:48;4.00;93.40
22787;DHT22;63134;52.020;4.714;2023-02-15T04:47:36;4.00;93.40
22787;DHT22;63134;52.020;4.714;2023-02-15T04:50:22;4.00;93.30
22787;DHT22;63134;52.020;4.714;2023-02-15T04:53:07;3.90;93.40
22787;DHT22;63134;52.020;4.714;2023-02-15T04:55:55;3.90;93.30
22787;DHT22;63134;52.020;4.714;2023-02-15T04:58:46;3.90;93.60
22787;DHT22;63134;52.020;4.714;2023-02-15T05:01:32;3.90;93.30
22787;DHT22;63134;52.020;4.714;2023-02-15T05:04:17;3.80;93.20
22787;DHT22;63134;52.020;4.714;2023-02-15T05:07:03;3.80;93.20
22787;DHT22;63134;52.020;4.714;2023-02-15T05:09:49;3.80;93.20
22787;DHT22;63134;52.020;4.714;2023-02-15T05:12:35;3.80;93.30
22787;DHT22;63134;52.020;4.714;2023-02-15T05:15:20;3.70;93.30
22787;DHT22;63134;52.020;4.714;2023-02-15T05:18:06;3.70;93.30
22787;DHT22;63134;52.020;4.714;2023-02-15T05:20:55;3.70;93.40
22787;DHT22;63134;52.020;4.714;2023-02-15T05:23:40;3.70;93.50
22787;DHT22;63134;52.020;4.714;2023-02-15T05:26:29;3.70;93.40
22787;DHT22;63134;52.020;4.714;2023-02-15T05:29:36;3.60;93.40
22787;DHT22;63134;52.020;4.714;2023-02-15T05:32:21;3.60;93.40
22787;DHT22;63134;52.020;4.714;2023-02-15T05:35:07;3.60;93.40
22787;DHT22;63134;52.020;4.714;2023-02-15T05:37:53;3.50;93.50
22787;DHT22;63134;52.020;4.714;2023-02-15T05:40:38;3.50;93.40
22787;DHT22;63134;52.020;4.714;2023-02-15T05:43:24;3.50;93.50
22787;DHT22;63134;52.020;4.714;2023-02-15T05:46:10;3.50;93.40
22787;DHT22;63134;52.020;4.714;2023-02-15T05:48:56;3.50;93.60
22787;DHT22;63134;52.020;4.714;2023-02-15T05:51:42;3.50;93.60
22787;DHT22;63134;52.020;4.714;2023-02-15T05:54:29;3.50;93.60
22787;DHT22;63134;52.020;4.714;2023-02-15T05:57:15;3.50;93.50
22787;DHT22;63134;52.020;4.714;2023-02-15T06:00:03;3.40;93.50
22787;DHT22;63134;52.020;4.714;2023-02-15T06:02:55;3.40;93.60
22787;DHT22;63134;52.020;4.714;2023-02-15T06:05:44;3.40;93.60
22787;DHT22;63134;52.020;4.714;2023-02-15T06:08:30;3.40;93.60
22787;DHT22;63134;52.020;4.714;2023-02-15T06:11:15;3.40;93.70
22787;DHT22;63134;52.020;4.714;2023-02-15T06:14:02;3.40;93.70
22787;DHT22;63134;52.020;4.714;2023-02-15T06:16:47;3.40;93.80
22787;DHT22;63134;52.020;4.714;2023-02-15T06:19:33;3.40;93.90
22787;DHT22;63134;52.020;4.714;2023-02-15T06:22:22;3.40;93.80
22787;DHT22;63134;52.020;4.714;2023-02-15T06:25:08;3.40;93.80
22787;DHT22;63134;52.020;4.714;2023-02-15T06:27:56;3.40;93.90
22787;DHT22;63134;52.020;4.714;2023-02-15T06:30:41;3.40;94.00
22787;DHT22;63134;52.020;4.714;2023-02-15T06:33:27;3.40;94.00
22787;DHT22;63134;52.020;4.714;2023-02-15T06:36:12;3.40;94.10
22787;DHT22;63134;52.020;4.714;2023-02-15T06:38:58;3.40;94.00
22787;DHT22;63134;52.020;4.714;2023-02-15T06:41:45;3.40;94.00
22787;DHT22;63134;52.020;4.714;2023-02-15T06:44:30;3.40;94.20
22787;DHT22;63134;52.020;4.714;2023-02-15T06:47:15;3.30;94.10
22787;DHT22;63134;52.020;4.714;2023-02-15T06:50:01;3.40;94.10
22787;DHT22;63134;52.020;4.714;2023-02-15T06:52:48;3.30;94.00
22787;DHT22;63134;52.020;4.714;2023-02-15T06:55:34;3.40;94.10
22787;DHT22;63134;52.020;4.714;2023-02-15T06:58:19;3.30;94.10
22787;DHT22;63134;52.020;4.714;2023-02-15T07:01:05;3.30;94.00
22787;DHT22;63134;52.020;4.714;2023-02-15T07:03:51;3.30;94.10
22787;DHT22;63134;52.020;4.714;2023-02-15T07:06:39;3.30;94.10
22787;DHT22;63134;52.020;4.714;2023-02-15T07:09:28;3.40;94.20
22787;DHT22;63134;52.020;4.714;2023-02-15T07:12:14;3.40;94.30
22787;DHT22;63134;52.020;4.714;2023-02-15T07:15:19;3.40;94.20
22787;DHT22;63134;52.020;4.714;2023-02-15T07:18:07;3.40;94.20
22787;DHT22;63134;52.020;4.714;2023-02-15T07:20:54;3.40;94.40
22787;DHT22;63134;52.020;4.714;2023-02-15T07:23:39;3.40;94.30
22787;DHT22;63134;52.020;4.714;2023-02-15T07:26:26;3.50;94.40
22787;DHT22;63134;52.020;4.714;2023-02-15T07:29:11;3.50;94.40
22787;DHT22;63134;52.020;4.714;2023-02-15T07:31:56;3.50;94.40
22787;DHT22;63134;52.020;4.714;2023-02-15T07:34:42;3.50;94.40
22787;DHT22;63134;52.020;4.714;2023-02-15T07:37:28;3.60;94.50
22787;DHT22;63134;52.020;4.714;2023-02-15T07:40:14;3.60;94.50
22787;DHT22;63134;52.020;4.714;2023-02-15T07:43:02;3.60;94.50
22787;DHT22;63134;52.020;4.714;2023-02-15T07:45:49;3.70;94.60
22787;DHT22;63134;52.020;4.714;2023-02-15T07:48:35;3.70;94.50
22787;DHT22;63134;52.020;4.714;2023-02-15T07:51:22;3.80;94.60
22787;DHT22;63134;52.020;4.714;2023-02-15T07:54:21;3.80;94.60
22787;DHT22;63134;52.020;4.714;2023-02-15T07:57:08;3.80;94.60
22787;DHT22;63134;52.020;4.714;2023-02-15T07:59:56;3.90;94.60
22787;DHT22;63134;52.020;4.714;2023-02-15T08:02:42;3.90;94.70
22787;DHT22;63134;52.020;4.714;2023-02-15T08:05:28;3.90;94.60
22787;DHT22;63134;52.020;4.714;2023-02-15T08:08:13;4.00;94.70
22787;DHT22;63134;52.020;4.714;2023-02-15T08:11:28;4.10;94.80
22787;DHT22;63134;52.020;4.714;2023-02-15T08:14:20;4.10;94.70
22787;DHT22;63134;52.020;4.714;2023-02-15T08:17:08;4.20;94.90
22787;DHT22;63134;52.020;4.714;2023-02-15T08:19:56;4.30;94.80
22787;DHT22;63134;52.020;4.714;2023-02-15T08:22:42;4.30;94.90
22787;DHT22;63134;52.020;4.714;2023-02-15T08:25:33;4.40;95.00
22787;DHT22;63134;52.020;4.714;2023-02-15T08:28:21;4.50;94.80
22787;DHT22;63134;52.020;4.714;2023-02-15T08:31:08;4.50;94.90
22787;DHT22;63134;52.020;4.714;2023-02-15T08:33:55;4.60;94.90
22787;DHT22;63134;52.020;4.714;2023-02-15T08:36:41;4.70;94.90
22787;DHT22;63134;52.020;4.714;2023-02-15T08:39:27;4.70;94.90
22787;DHT22;63134;52.020;4.714;2023-02-15T08:42:13;4.80;94.70
22787;DHT22;63134;52.020;4.714;2023-02-15T08:44:59;4.80;94.80
22787;DHT22;63134;52.020;4.714;2023-02-15T08:47:44;4.90;94.80
22787;DHT22;63134;52.020;4.714;2023-02-15T08:50:30;5.00;94.90
22787;DHT22;63134;52.020;4.714;2023-02-15T08:53:16;5.00;94.70
22787;DHT22;63134;52.020;4.714;2023-02-15T08:56:06;5.00;94.70
22787;DHT22;63134;52.020;4.714;2023-02-15T08:58:52;5.10;94.80
22787;DHT22;63134;52.020;4.714;2023-02-15T09:01:42;5.20;95.00
22787;DHT22;63134;52.020;4.714;2023-02-15T09:04:27;5.30;94.90
22787;DHT22;63134;52.020;4.714;2023-02-15T09:07:13;5.40;95.00
22787;DHT22;63134;52.020;4.714;2023-02-15T09:10:04;5.50;94.90
22787;DHT22;63134;52.020;4.714;2023-02-15T09:12:50;5.50;94.70
22787;DHT22;63134;52.020;4.714;2023-02-15T09:15:36;5.50;94.50
22787;DHT22;63134;52.020;4.714;2023-02-15T09:18:21;5.60;94.60
22787;DHT22;63134;52.020;4.714;2023-02-15T09:21:16;5.70;94.70
22787;DHT22;63134;52.020;4.714;2023-02-15T09:24:06;5.80;94.70
22787;DHT22;63134;52.020;4.714;2023-02-15T09:26:52;5.80;94.40
22787;DHT22;63134;52.020;4.714;2023-02-15T09:29:38;5.80;94.70
22787;DHT22;63134;52.020;4.714;2023-02-15T09:32:24;5.90;94.40
22787;DHT22;63134;52.020;4.714;2023-02-15T09:35:09;6.00;94.40
22787;DHT22;63134;52.020;4.714;2023-02-15T09:37:54;6.00;94.30
22787;DHT22;63134;52.020;4.714;2023-02-15T09:40:54;6.10;94.70
22787;DHT22;63134;52.020;4.714;2023-02-15T09:44:09;6.30;94.60
22787;DHT22;63134;52.020;4.714;2023-02-15T09:54:13;6.70;94.40
22787;DHT22;63134;52.020;4.714;2023-02-15T10:00:18;7.00;94.40
22787;DHT22;63134;52.020;4.714;2023-02-15T10:06:30;7.40;94.40
22787;DHT22;63134;52.020;4.714;2023-02-15T10:15:50;8.00;94.30
22787;DHT22;63134;52.020;4.714;2023-02-15T10:19:03;8.20;94.20
22787;DHT22;63134;52.020;4.714;2023-02-15T10:28:05;8.60;93.30
22787;DHT22;63134;52.020;4.714;2023-02-15T10:30:58;8.70;93.20
22787;DHT22;63134;52.020;4.714;2023-02-15T10:40:32;9.20;92.90
22787;DHT22;63134;52.020;4.714;2023-02-15T11:04:51;10.50;91.70
22787;DHT22;63134;52.020;4.714;2023-02-15T11:07:41;10.80;92.40
22787;DHT22;63134;52.020;4.714;2023-02-15T11:13:23;11.20;91.20
22787;DHT22;63134;52.020;4.714;2023-02-15T11:16:25;11.40;91.70
22787;DHT22;63134;52.020;4.714;2023-02-15T11:19:18;11.80;91.20
22787;DHT22;63134;52.020;4.714;2023-02-15T11:22:06;11.90;90.70
22787;DHT22;63134;52.020;4.714;2023-02-15T11:24:52;12.00;88.40
22787;DHT22;63134;52.020;4.714;2023-02-15T11:27:43;12.00;86.70
22787;DHT22;63134;52.020;4.714;2023-02-15T11:30:43;12.20;85.90
22787;DHT22;63134;52.020;4.714;2023-02-15T11:33:35;12.50;84.30
22787;DHT22;63134;52.020;4.714;2023-02-15T11:36:25;12.90;82.70
22787;DHT22;63134;52.020;4.714;2023-02-15T11:39:15;13.20;81.50
22787;DHT22;63134;52.020;4.714;2023-02-15T11:42:09;13.70;80.60
22787;DHT22;63134;52.020;4.714;2023-02-15T11:45:07;13.80;76.10
22787;DHT22;63134;52.020;4.714;2023-02-15T11:48:15;14.10;74.00
22787;DHT22;63134;52.020;4.714;2023-02-15T11:51:02;14.30;68.40
22787;DHT22;63134;52.020;4.714;2023-02-15T11:53:49;14.40;66.70
22787;DHT22;63134;52.020;4.714;2023-02-15T11:56:37;14.60;64.50
22787;DHT22;63134;52.020;4.714;2023-02-15T11:59:34;14.70;61.90
22787;DHT22;63134;52.020;4.714;2023-02-15T12:02:21;14.70;61.60
22787;DHT22;63134;52.020;4.714;2023-02-15T12:05:17;14.90;62.20
22787;DHT22;63134;52.020;4.714;2023-02-15T12:11:13;15.80;59.00
22787;DHT22;63134;52.020;4.714;2023-02-15T12:14:06;16.00;57.60
22787;DHT22;63134;52.020;4.714;2023-02-15T12:16:56;16.40;57.80
22787;DHT22;63134;52.020;4.714;2023-02-15T12:19:42;17.20;57.00
22787;DHT22;63134;52.020;4.714;2023-02-15T12:22:34;18.00;56.30
22787;DHT22;63134;52.020;4.714;2023-02-15T12:25:32;18.70;51.20
22787;DHT22;63134;52.020;4.714;2023-02-15T12:28:44;19.20;51.40
22787;DHT22;63134;52.020;4.714;2023-02-15T12:31:39;20.40;48.30
22787;DHT22;63134;52.020;4.714;2023-02-15T12:34:32;21.10;44.50
22787;DHT22;63134;52.020;4.714;2023-02-15T12:37:27;21.30;42.30
22787;DHT22;63134;52.020;4.714;2023-02-15T12:40:23;21.20;43.20
22787;DHT22;63134;52.020;4.714;2023-02-15T12:43:37;21.10;41.70
22787;DHT22;63134;52.020;4.714;2023-02-15T12:46:41;20.70;42.60
22787;DHT22;63134;52.020;4.714;2023-02-15T12:49:35;20.10;43.30
22787;DHT22;63134;52.020;4.714;2023-02-15T12:58:40;18.60;46.00
22787;DHT22;63134;52.020;4.714;2023-02-15T13:01:31;18.10;47.00
22787;DHT22;63134;52.020;4.714;2023-02-15T13:04:26;18.00;48.20
22787;DHT22;63134;52.020;4.714;2023-02-15T13:07:13;17.90;48.10
22787;DHT22;63134;52.020;4.714;2023-02-15T13:10:22;17.70;48.50
22787;DHT22;63134;52.020;4.714;2023-02-15T13:13:21;17.60;49.50
22787;DHT22;63134;52.020;4.714;2023-02-15T13:16:12;17.50;49.90
22787;DHT22;63134;52.020;4.714;2023-02-15T13:19:03;17.80;49.50
22787;DHT22;63134;52.020;4.714;2023-02-15T13:21:51;18.00;49.60
22787;DHT22;63134;52.020;4.714;2023-02-15T13:24:41;17.90;48.40
22787;DHT22;63134;52.020;4.714;2023-02-15T13:27:37;17.70;48.40
22787;DHT22;63134;52.020;4.714;2023-02-15T13:30:38;17.50;49.10
22787;DHT22;63134;52.020;4.714;2023-02-15T13:33:31;17.30;50.10
22787;DHT22;63134;52.020;4.714;2023-02-15T13:39:50;17.10;50.40
22787;DHT22;63134;52.020;4.714;2023-02-15T13:42:46;16.90;50.90
22787;DHT22;63134;52.020;4.714;2023-02-15T13:51:45;17.20;50.10
22787;DHT22;63134;52.020;4.714;2023-02-15T14:00:56;17.90;47.60
22787;DHT22;63134;52.020;4.714;2023-02-15T14:06:42;17.70;48.50
22787;DHT22;63134;52.020;4.714;2023-02-15T14:13:16;17.80;48.70
22787;DHT22;63134;52.020;4.714;2023-02-15T14:19:21;18.50;48.10
22787;DHT22;63134;52.020;4.714;2023-02-15T14:22:29;19.30;48.40
22787;DHT22;63134;52.020;4.714;2023-02-15T14:25:35;20.40;45.70
22787;DHT22;63134;52.020;4.714;2023-02-15T14:31:39;21.90;41.40
22787;DHT22;63134;52.020;4.714;2023-02-15T14:37:44;20.50;42.20
22787;DHT22;63134;52.020;4.714;2023-02-15T14:53:40;17.80;50.10
22787;DHT22;63134;52.020;4.714;2023-02-15T14:56:27;17.40;50.90
22787;DHT22;63134;52.020;4.714;2023-02-15T14:59:19;17.20;51.50
22787;DHT22;63134;52.020;4.714;2023-02-15T15:05:21;16.80;53.10
22787;DHT22;63134;52.020;4.714;2023-02-15T15:08:42;16.70;53.40
22787;DHT22;63134;52.020;4.714;2023-02-15T15:26:21;15.10;57.30
22787;DHT22;63134;52.020;4.714;2023-02-15T15:29:09;14.80;57.90
22787;DHT22;63134;52.020;4.714;2023-02-15T15:31:59;14.60;58.60
22787;DHT22;63134;52.020;4.714;2023-02-15T15:35:13;14.40;59.10
22787;DHT22;63134;52.020;4.714;2023-02-15T15:44:26;14.10;60.50
22787;DHT22;63134;52.020;4.714;2023-02-15T15:50:17;13.80;62.00
22787;DHT22;63134;52.020;4.714;2023-02-15T15:53:03;13.70;62.70
22787;DHT22;63134;52.020;4.714;2023-02-15T15:55:52;13.50;63.40
22787;DHT22;63134;52.020;4.714;2023-02-15T15:58:48;13.40;64.00
22787;DHT22;63134;52.020;4.714;2023-02-15T16:01:39;13.30;65.00
22787;DHT22;63134;52.020;4.714;2023-02-15T16:04:28;13.10;65.60
22787;DHT22;63134;52.020;4.714;2023-02-15T16:10:23;12.90;67.20
22787;DHT22;63134;52.020;4.714;2023-02-15T16:13:13;12.70;67.70
22787;DHT22;63134;52.020;4.714;2023-02-15T16:15:59;12.60;68.50
22787;DHT22;63134;52.020;4.714;2023-02-15T16:18:46;12.50;69.00
22787;DHT22;63134;52.020;4.714;2023-02-15T16:21:35;12.30;69.50
22787;DHT22;63134;52.020;4.714;2023-02-15T16:24:22;12.20;70.10
22787;DHT22;63134;52.020;4.714;2023-02-15T16:27:27;12.10;70.70
22787;DHT22;63134;52.020;4.714;2023-02-15T16:30:28;12.10;71.10
22787;DHT22;63134;52.020;4.714;2023-02-15T16:33:21;12.00;71.20
22787;DHT22;63134;52.020;4.714;2023-02-15T16:36:21;11.80;71.50
22787;DHT22;63134;52.020;4.714;2023-02-15T16:39:12;11.80;72.20
22787;DHT22;63134;52.020;4.714;2023-02-15T16:42:05;11.70;72.70
22787;DHT22;63134;52.020;4.714;2023-02-15T16:44:55;11.80;73.20
22787;DHT22;63134;52.020;4.714;2023-02-15T16:47:46;11.90;73.00
22787;DHT22;63134;52.020;4.714;2023-02-15T16:50:38;11.70;72.90
22787;DHT22;63134;52.020;4.714;2023-02-15T16:53:26;11.60;73.50
22787;DHT22;63134;52.020;4.714;2023-02-15T16:56:29;11.40;73.80
22787;DHT22;63134;52.020;4.714;2023-02-15T17:02:18;11.20;74.80
22787;DHT22;63134;52.020;4.714;2023-02-15T17:08:33;11.00;75.60
22787;DHT22;63134;52.020;4.714;2023-02-15T17:11:21;10.90;75.80
22787;DHT22;63134;52.020;4.714;2023-02-15T17:17:04;10.80;76.70
22787;DHT22;63134;52.020;4.714;2023-02-15T17:19:53;10.80;76.90
22787;DHT22;63134;52.020;4.714;2023-02-15T17:22:40;10.70;77.20
22787;DHT22;63134;52.020;4.714;2023-02-15T17:25:36;10.60;77.70
22787;DHT22;63134;52.020;4.714;2023-02-15T17:28:27;10.60;78.00
22787;DHT22;63134;52.020;4.714;2023-02-15T17:31:16;10.60;78.20
22787;DHT22;63134;52.020;4.714;2023-02-15T17:34:03;10.50;78.50
22787;DHT22;63134;52.020;4.714;2023-02-15T17:36:58;10.40;78.60
22787;DHT22;63134;52.020;4.714;2023-02-15T17:39:50;10.40;78.80
22787;DHT22;63134;52.020;4.714;2023-02-15T17:42:36;10.40;79.30
22787;DHT22;63134;52.020;4.714;2023-02-15T17:45:23;10.40;79.30
22787;DHT22;63134;52.020;4.714;2023-02-15T17:51:09;10.30;79.70
22787;DHT22;63134;52.020;4.714;2023-02-15T17:53:56;10.20;79.80
22787;DHT22;63134;52.020;4.714;2023-02-15T17:57:00;10.20;80.00
22787;DHT22;63134;52.020;4.714;2023-02-15T17:59:50;10.20;80.20
22787;DHT22;63134;52.020;4.714;2023-02-15T18:02:56;10.20;80.40
22787;DHT22;63134;52.020;4.714;2023-02-15T18:06:01;10.20;80.40
22787;DHT22;63134;52.020;4.714;2023-02-15T18:09:05;10.20;80.40
22787;DHT22;63134;52.020;4.714;2023-02-15T18:15:13;10.20;80.40
22787;DHT22;63134;52.020;4.714;2023-02-15T18:17:59;10.20;80.30
22787;DHT22;63134;52.020;4.714;2023-02-15T18:20:44;10.20;80.20
22787;DHT22;63134;52.020;4.714;2023-02-15T18:23:32;10.20;80.30
22787;DHT22;63134;52.020;4.714;2023-02-15T18:26:21;10.20;80.30
22787;DHT22;63134;52.020;4.714;2023-02-15T18:29:07;10.20;80.30
22787;DHT22;63134;52.020;4.714;2023-02-15T18:32:00;10.10;80.30
22787;DHT22;63134;52.020;4.714;2023-02-15T18:34:47;10.10;80.30
22787;DHT22;63134;52.020;4.714;2023-02-15T18:37:34;10.10;80.30
22787;DHT22;63134;52.020;4.714;2023-02-15T18:40:30;10.10;80.30
22787;DHT22;63134;52.020;4.714;2023-02-15T18:43:15;10.00;80.20
22787;DHT22;63134;52.020;4.714;2023-02-15T18:46:01;10.00;80.30
22787;DHT22;63134;52.020;4.714;2023-02-15T18:48:46;10.00;80.30
22787;DHT22;63134;52.020;4.714;2023-02-15T18:51:32;10.00;80.40
22787;DHT22;63134;52.020;4.714;2023-02-15T18:54:24;10.00;80.60
22787;DHT22;63134;52.020;4.714;2023-02-15T18:57:12;9.90;80.50
22787;DHT22;63134;52.020;4.714;2023-02-15T18:59:58;9.90;80.40
22787;DHT22;63134;52.020;4.714;2023-02-15T19:02:44;9.90;81.20
22787;DHT22;63134;52.020;4.714;2023-02-15T19:05:31;9.90;80.40
22787;DHT22;63134;52.020;4.714;2023-02-15T19:08:18;9.90;80.30
22787;DHT22;63134;52.020;4.714;2023-02-15T19:11:11;9.90;80.50
22787;DHT22;63134;52.020;4.714;2023-02-15T19:13:57;9.80;80.60
22787;DHT22;63134;52.020;4.714;2023-02-15T19:16:43;9.80;80.70
22787;DHT22;63134;52.020;4.714;2023-02-15T19:19:28;9.80;80.70
22787;DHT22;63134;52.020;4.714;2023-02-15T19:22:23;9.70;80.90
22787;DHT22;63134;52.020;4.714;2023-02-15T19:25:32;9.70;81.00
22787;DHT22;63134;52.020;4.714;2023-02-15T19:28:32;9.70;80.90
22787;DHT22;63134;52.020;4.714;2023-02-15T19:31:18;9.70;81.00
22787;DHT22;63134;52.020;4.714;2023-02-15T19:34:13;9.60;81.00
22787;DHT22;63134;52.020;4.714;2023-02-15T19:37:00;9.60;81.10
22787;DHT22;63134;52.020;4.714;2023-02-15T19:39:49;9.60;81.30
22787;DHT22;63134;52.020;4.714;2023-02-15T19:42:35;9.50;81.30
22787;DHT22;63134;52.020;4.714;2023-02-15T19:45:22;9.50;81.30
22787;DHT22;63134;52.020;4.714;2023-02-15T19:48:11;9.40;81.20
22787;DHT22;63134;52.020;4.714;2023-02-15T19:50:58;9.40;81.40
22787;DHT22;63134;52.020;4.714;2023-02-15T19:53:45;9.40;81.50
22787;DHT22;63134;52.020;4.714;2023-02-15T19:56:31;9.30;81.30
22787;DHT22;63134;52.020;4.714;2023-02-15T19:59:22;9.30;81.50
22787;DHT22;63134;52.020;4.714;2023-02-15T20:02:21;9.30;81.40
22787;DHT22;63134;52.020;4.714;2023-02-15T20:05:06;9.30;81.60
22787;DHT22;63134;52.020;4.714;2023-02-15T20:07:52;9.20;81.70
22787;DHT22;63134;52.020;4.714;2023-02-15T20:10:37;9.20;82.00
22787;DHT22;63134;52.020;4.714;2023-02-15T20:13:23;9.20;82.20
22787;DHT22;63134;52.020;4.714;2023-02-15T20:16:09;9.10;82.20
22787;DHT22;63134;52.020;4.714;2023-02-15T20:18:55;9.10;82.30
22787;DHT22;63134;52.020;4.714;2023-02-15T20:21:48;9.10;82.50
22787;DHT22;63134;52.020;4.714;2023-02-15T20:24:38;9.10;82.30
22787;DHT22;63134;52.020;4.714;2023-02-15T20:27:24;9.20;82.40
22787;DHT22;63134;52.020;4.714;2023-02-15T20:30:15;9.10;82.30
22787;DHT22;63134;52.020;4.714;2023-02-15T20:33:01;9.10;82.50
22787;DHT22;63134;52.020;4.714;2023-02-15T20:35:48;9.10;82.40
22787;DHT22;63134;52.020;4.714;2023-02-15T20:38:36;9.00;82.40
22787;DHT22;63134;52.020;4.714;2023-02-15T20:41:23;9.00;82.60
22787;DHT22;63134;52.020;4.714;2023-02-15T20:44:27;9.00;82.70
22787;DHT22;63134;52.020;4.714;2023-02-15T20:47:13;8.90;82.70
22787;DHT22;63134;52.020;4.714;2023-02-15T20:49:59;9.00;82.60
22787;DHT22;63134;52.020;4.714;2023-02-15T20:52:45;8.90;82.30
22787;DHT22;63134;52.020;4.714;2023-02-15T20:55:31;8.90;82.30
22787;DHT22;63134;52.020;4.714;2023-02-15T20:58:23;8.90;82.30
22787;DHT22;63134;52.020;4.714;2023-02-15T21:01:10;8.80;82.40
22787;DHT22;63134;52.020;4.714;2023-02-15T21:03:56;8.80;82.70
22787;DHT22;63134;52.020;4.714;2023-02-15T21:06:41;8.70;82.90
22787;DHT22;63134;52.020;4.714;2023-02-15T21:09:30;8.70;83.10
22787;DHT22;63134;52.020;4.714;2023-02-15T21:12:17;8.70;82.90
22787;DHT22;63134;52.020;4.714;2023-02-15T21:18:06;8.80;82.60